createdAt,value
2023-07-21T00:00:42.243Z,9.711401
2023-07-21T00:01:42.240Z,9.711466
2023-07-21T00:02:42.281Z,9.711676
2023-07-21T00:03:42.243Z,9.711779
2023-07-21T00:04:42.190Z,9.711671
2023-07-21T00:05:42.197Z,9.711672
2023-07-21T00:06:42.197Z,9.711721
2023-07-21T00:07:42.179Z,9.711582
2023-07-21T00:08:42.170Z,9.711704
2023-07-21T00:09:42.157Z,9.711722
2023-07-21T00:10:42.150Z,9.711590
2023-07-21T00:11:42.152Z,9.711653
2023-07-21T00:12:42.140Z,9.711615
2023-07-21T00:13:42.144Z,9.711477
2023-07-21T00:14:42.121Z,9.711659
2023-07-21T00:15:43.151Z,9.711556
2023-07-21T00:16:42.099Z,9.711465
2023-07-21T00:17:42.138Z,9.711649
2023-07-21T00:28:31.975Z,9.711360
2023-07-21T00:29:31.972Z,9.711720
2023-07-21T00:30:32.885Z,9.711787
2023-07-21T00:31:31.994Z,9.711634
2023-07-21T00:32:31.993Z,9.711307
2023-07-21T00:33:31.991Z,9.710633
2023-07-21T00:34:31.923Z,9.710929
2023-07-21T00:35:31.957Z,9.710840
2023-07-21T00:36:31.917Z,9.710717
2023-07-21T00:37:31.906Z,9.711682
2023-07-21T00:38:31.911Z,9.711616
2023-07-21T00:39:31.889Z,9.711622
2023-07-21T00:40:31.902Z,9.711608
2023-07-21T00:41:31.892Z,9.711626
2023-07-21T00:42:31.895Z,9.711655
2023-07-21T00:43:31.857Z,9.711711
2023-07-21T00:44:31.870Z,9.711733
2023-07-21T00:45:31.859Z,9.711719
2023-07-21T00:46:31.896Z,9.711711
2023-07-21T00:47:31.863Z,9.711758
2023-07-21T00:48:31.818Z,9.711755
2023-07-21T00:49:32.811Z,9.711780
2023-07-21T00:50:31.803Z,9.711859
2023-07-21T00:51:31.811Z,9.711775
2023-07-21T00:52:31.803Z,9.711743
2023-07-21T00:53:31.794Z,9.711656
2023-07-21T00:54:31.781Z,9.711633
2023-07-21T00:55:31.753Z,9.711728
2023-07-21T00:56:31.761Z,9.711756
2023-07-21T00:57:31.739Z,9.711817
2023-07-21T00:58:31.738Z,9.711971
2023-07-21T00:59:31.752Z,9.712030
2023-07-21T01:00:31.715Z,9.712156
2023-07-21T01:01:32.464Z,9.712504
2023-07-21T01:02:33.969Z,9.712214
2023-07-21T01:03:32.715Z,9.711821
2023-07-21T01:04:31.683Z,9.711640
2023-07-21T01:05:31.683Z,9.711436
2023-07-21T01:06:31.688Z,9.711471
2023-07-21T01:07:31.683Z,9.711636
2023-07-21T01:08:31.659Z,9.711759
2023-07-21T01:09:31.643Z,9.711723
2023-07-21T01:10:32.655Z,9.711750
2023-07-21T01:11:31.664Z,9.711740
2023-07-21T01:12:31.630Z,9.711974
2023-07-21T01:13:31.612Z,9.711734
2023-07-21T01:14:31.613Z,9.711440
2023-07-21T01:15:31.618Z,9.711543
2023-07-21T01:16:31.619Z,9.711525
2023-07-21T01:17:31.649Z,9.711677
2023-07-21T01:18:31.570Z,9.711610
2023-07-21T01:19:31.570Z,9.711656
2023-07-21T01:20:32.400Z,9.711816
2023-07-21T01:21:31.561Z,9.711777
2023-07-21T01:22:31.552Z,9.711938
2023-07-21T01:23:31.528Z,9.712258
2023-07-21T01:24:31.600Z,9.712303
2023-07-21T01:25:31.531Z,9.712376
2023-07-21T01:26:31.508Z,9.711958
2023-07-21T01:27:31.498Z,9.711776
2023-07-21T01:28:31.489Z,9.711603
2023-07-21T01:29:31.506Z,9.711711
2023-07-21T01:30:31.485Z,9.711680
2023-07-21T01:31:31.490Z,9.711519
2023-07-21T01:32:31.523Z,9.711471
2023-07-21T01:33:31.501Z,9.711472
2023-07-21T01:34:31.448Z,9.711469
2023-07-21T01:35:31.451Z,9.711449
2023-07-21T01:36:31.429Z,9.711486
2023-07-21T01:37:32.426Z,9.711530
2023-07-21T01:38:31.428Z,9.711587
2023-07-21T01:39:32.342Z,9.711570
2023-07-21T01:40:31.394Z,9.711529
2023-07-21T01:41:32.926Z,9.711523
2023-07-21T01:42:31.387Z,9.711517
2023-07-21T01:43:31.422Z,9.711544
2023-07-21T01:44:32.378Z,9.711553
2023-07-21T01:45:31.359Z,9.711622
2023-07-21T01:46:31.446Z,9.711505
2023-07-21T01:47:31.353Z,9.711556
2023-07-21T01:48:31.342Z,9.711618
2023-07-21T01:49:31.338Z,9.711679
2023-07-21T01:50:31.342Z,9.711580
2023-07-21T01:51:31.311Z,9.711493
2023-07-21T01:52:31.313Z,9.711441
2023-07-21T01:53:31.302Z,9.711405
2023-07-21T01:54:31.305Z,9.711422
2023-07-21T01:55:31.300Z,9.711491
2023-07-21T01:56:31.276Z,9.711608
2023-07-21T01:57:31.270Z,9.712236
2023-07-21T01:58:31.255Z,9.712750
2023-07-21T01:59:31.257Z,9.712607
2023-07-21T02:00:38.011Z,9.712660
2023-07-21T02:01:33.254Z,9.712225
2023-07-21T02:02:31.295Z,9.712254
2023-07-21T02:03:31.350Z,9.712617
2023-07-21T02:04:31.226Z,9.712617
2023-07-21T02:05:31.202Z,9.712617
2023-07-21T02:06:31.216Z,9.712617
2023-07-21T02:07:31.192Z,9.712617
2023-07-21T02:08:31.175Z,9.712617
2023-07-21T02:09:31.189Z,9.712617
2023-07-21T02:10:31.178Z,9.712617
2023-07-21T02:11:31.161Z,9.712617
2023-07-21T02:12:31.149Z,9.712617
2023-07-21T02:13:31.144Z,9.712617
2023-07-21T02:14:31.853Z,9.712617
2023-07-21T02:15:31.139Z,9.711851
2023-07-21T02:16:31.135Z,9.711689
2023-07-21T02:17:31.149Z,9.711802
2023-07-21T02:18:31.105Z,9.711832
2023-07-21T02:19:31.101Z,9.711826
2023-07-21T02:20:31.092Z,9.711808
2023-07-21T02:21:31.089Z,9.711767
2023-07-21T02:22:31.071Z,9.711778
2023-07-21T02:23:31.070Z,9.711779
2023-07-21T02:24:31.110Z,9.711829
2023-07-21T02:25:31.064Z,9.711874
2023-07-21T02:26:31.044Z,9.711754
2023-07-21T02:27:31.033Z,9.711668
2023-07-21T02:28:31.027Z,9.711613
2023-07-21T02:29:31.016Z,9.711696
2023-07-21T02:30:31.002Z,9.711626
2023-07-21T02:31:31.045Z,9.711755
2023-07-21T02:32:31.033Z,9.712111
2023-07-21T02:33:30.982Z,9.711690
2023-07-21T02:34:30.996Z,9.711654
2023-07-21T02:35:30.984Z,9.711671
2023-07-21T02:36:30.960Z,9.711714
2023-07-21T02:37:30.960Z,9.711662
2023-07-21T02:38:30.970Z,9.711673
2023-07-21T02:39:30.951Z,9.711693
2023-07-21T02:40:30.930Z,9.711616
2023-07-21T02:41:30.924Z,9.711561
2023-07-21T02:42:30.918Z,9.711486
2023-07-21T02:43:30.911Z,9.711421
2023-07-21T02:44:30.915Z,9.711432
2023-07-21T02:45:30.909Z,9.711432
2023-07-21T02:46:30.929Z,9.711471
2023-07-21T02:47:31.478Z,9.711693
2023-07-21T02:48:30.857Z,9.711647
2023-07-21T02:49:30.854Z,9.711657
2023-07-21T02:50:30.873Z,9.711643
2023-07-21T02:51:30.881Z,9.711747
2023-07-21T02:52:30.862Z,9.711613
2023-07-21T02:53:30.823Z,9.711604
2023-07-21T02:54:31.828Z,9.711626
2023-07-21T02:55:30.821Z,9.711584
2023-07-21T02:56:30.817Z,9.711609
2023-07-21T02:57:30.791Z,9.711551
2023-07-21T02:58:30.790Z,9.711529
2023-07-21T02:59:30.767Z,9.711539
2023-07-21T03:00:30.770Z,9.711558
2023-07-21T03:01:30.781Z,9.711575
2023-07-21T03:02:30.800Z,9.711561
2023-07-21T03:03:30.819Z,9.711592
2023-07-21T03:04:30.729Z,9.711580
2023-07-21T03:05:30.736Z,9.711604
2023-07-21T03:06:31.449Z,9.711640
2023-07-21T03:07:30.719Z,9.711669
2023-07-21T03:08:30.725Z,9.711682
2023-07-21T03:09:30.703Z,9.711678
2023-07-21T03:10:30.719Z,9.711650
2023-07-21T03:11:30.689Z,9.711581
2023-07-21T03:12:30.674Z,9.711611
2023-07-21T03:13:30.678Z,9.711630
2023-07-21T03:14:30.666Z,9.711638
2023-07-21T03:15:30.684Z,9.711765
2023-07-21T03:16:30.701Z,9.711819
2023-07-21T03:17:30.656Z,9.711720
2023-07-21T03:18:31.434Z,9.711673
2023-07-21T03:19:30.624Z,9.711772
2023-07-21T03:20:30.620Z,9.711660
2023-07-21T03:21:30.626Z,9.711670
2023-07-21T03:22:30.609Z,9.711914
2023-07-21T03:23:30.588Z,9.711936
2023-07-21T03:24:30.600Z,9.712066
2023-07-21T03:25:30.572Z,9.712184
2023-07-21T03:26:30.601Z,9.712144
2023-07-21T03:27:30.568Z,9.711851
2023-07-21T03:28:30.545Z,9.712122
2023-07-21T03:29:30.546Z,9.712132
2023-07-21T03:30:30.541Z,9.712277
2023-07-21T03:31:30.572Z,9.712333
2023-07-21T03:32:30.555Z,9.712293
2023-07-21T03:33:30.523Z,9.712200
2023-07-21T03:34:30.506Z,9.712038
2023-07-21T03:35:30.514Z,9.712080
2023-07-21T03:36:30.490Z,9.712191
2023-07-21T03:37:30.500Z,9.712082
2023-07-21T03:38:30.462Z,9.711968
2023-07-21T03:39:30.456Z,9.712094
2023-07-21T03:40:30.456Z,9.712002
2023-07-21T03:41:30.451Z,9.712038
2023-07-21T03:42:30.459Z,9.711926
2023-07-21T03:43:30.431Z,9.711778
2023-07-21T03:44:30.434Z,9.712200
2023-07-21T03:45:30.450Z,9.712513
2023-07-21T03:46:30.538Z,9.712441
2023-07-21T03:47:30.486Z,9.712083
2023-07-21T03:48:30.391Z,9.711930
2023-07-21T03:49:30.389Z,9.711832
2023-07-21T03:50:30.370Z,9.711727
2023-07-21T03:51:30.383Z,9.711888
2023-07-21T03:52:30.437Z,9.712010
2023-07-21T03:53:36.508Z,9.712069
2023-07-21T03:54:32.341Z,9.712193
2023-07-21T03:55:30.331Z,9.712247
2023-07-21T03:56:30.334Z,9.712431
2023-07-21T03:57:30.316Z,9.712477
2023-07-21T03:58:30.329Z,9.712656
2023-07-21T03:59:30.315Z,9.712098
2023-07-21T04:00:30.311Z,9.711704
2023-07-21T04:01:30.328Z,9.711634
2023-07-21T04:02:30.277Z,9.711667
2023-07-21T04:03:30.377Z,9.711533
2023-07-21T04:04:30.420Z,9.711044
2023-07-21T04:05:31.756Z,9.711207
2023-07-21T04:06:30.260Z,9.711779
2023-07-21T04:07:30.238Z,9.711993
2023-07-21T04:08:30.237Z,9.711966
2023-07-21T04:09:30.238Z,9.711888
2023-07-21T04:10:30.230Z,9.711791
2023-07-21T04:11:30.218Z,9.711782
2023-07-21T04:12:30.199Z,9.711910
2023-07-21T04:13:30.230Z,9.711800
2023-07-21T04:14:30.201Z,9.711801
2023-07-21T04:15:30.193Z,9.711947
2023-07-21T04:16:30.299Z,9.711940
2023-07-21T04:17:30.182Z,9.711930
2023-07-21T04:18:30.161Z,9.711831
2023-07-21T04:19:30.146Z,9.711698
2023-07-21T04:20:30.185Z,9.711765
2023-07-21T04:21:30.142Z,9.711687
2023-07-21T04:22:30.142Z,9.711666
2023-07-21T04:23:30.138Z,9.711641
2023-07-21T04:24:30.184Z,9.711656
2023-07-21T04:25:30.119Z,9.711705
2023-07-21T04:26:30.113Z,9.711699
2023-07-21T04:27:30.119Z,9.711678
2023-07-21T04:28:30.096Z,9.711682
2023-07-21T04:29:36.289Z,9.711650
2023-07-21T04:30:32.071Z,9.711638
2023-07-21T04:31:31.345Z,9.711626
2023-07-21T04:32:30.096Z,9.711585
2023-07-21T04:33:30.060Z,9.711617
2023-07-21T04:34:30.033Z,9.711613
2023-07-21T04:35:30.034Z,9.711633
2023-07-21T04:36:30.030Z,9.711658
2023-07-21T04:37:30.023Z,9.711618
2023-07-21T04:38:30.012Z,9.711589
2023-07-21T04:39:30.020Z,9.711689
2023-07-21T04:40:29.995Z,9.711645
2023-07-21T04:41:29.976Z,9.711638
2023-07-21T04:42:29.991Z,9.711653
2023-07-21T04:43:29.956Z,9.711644
2023-07-21T04:44:29.944Z,9.711649
2023-07-21T04:45:29.958Z,9.711615
2023-07-21T04:46:29.958Z,9.711621
2023-07-21T04:47:29.959Z,9.711614
2023-07-21T04:48:29.921Z,9.711662
2023-07-21T04:49:29.926Z,9.711722
2023-07-21T04:50:29.917Z,9.711761
2023-07-21T04:51:30.450Z,9.711670
2023-07-21T04:52:29.892Z,9.711585
2023-07-21T04:53:29.907Z,9.711566
2023-07-21T04:54:30.371Z,9.711700
2023-07-21T04:55:29.884Z,9.711673
2023-07-21T04:56:29.869Z,9.711658
2023-07-21T04:57:29.869Z,9.711701
2023-07-21T04:58:29.858Z,9.711714
2023-07-21T04:59:29.842Z,9.711716
2023-07-21T05:00:29.840Z,9.711724
2023-07-21T05:01:29.873Z,9.711683
2023-07-21T05:02:29.891Z,9.711645
2023-07-21T05:03:29.865Z,9.711527
2023-07-21T05:04:29.815Z,9.711588
2023-07-21T05:05:29.793Z,9.711707
2023-07-21T05:06:29.793Z,9.711766
2023-07-21T05:07:29.784Z,9.711587
2023-07-21T05:08:29.773Z,9.711792
2023-07-21T05:09:29.777Z,9.711704
2023-07-21T05:10:29.776Z,9.711699
2023-07-21T05:11:29.757Z,9.711549
2023-07-21T05:12:29.751Z,9.711493
2023-07-21T05:13:30.926Z,9.711845
2023-07-21T05:14:30.719Z,9.711832
2023-07-21T05:15:29.713Z,9.711908
2023-07-21T05:16:29.732Z,9.711871
2023-07-21T05:17:29.755Z,9.711810
2023-07-21T05:18:29.707Z,9.711750
2023-07-21T05:19:29.670Z,9.711761
2023-07-21T05:20:31.231Z,9.711568
2023-07-21T05:21:30.674Z,9.711358
2023-07-21T05:22:29.647Z,9.711520
2023-07-21T05:23:29.650Z,9.711687
2023-07-21T05:24:29.673Z,9.711820
2023-07-21T05:25:29.619Z,9.711699
2023-07-21T05:26:29.641Z,9.711951
2023-07-21T05:27:29.612Z,9.711914
2023-07-21T05:28:29.615Z,9.711950
2023-07-21T05:29:29.592Z,9.711896
2023-07-21T05:30:29.593Z,9.712121
2023-07-21T05:31:29.661Z,9.711959
2023-07-21T05:32:29.595Z,9.711899
2023-07-21T05:33:29.567Z,9.712029
2023-07-21T05:34:29.564Z,9.712065
2023-07-21T05:35:29.547Z,9.712176
2023-07-21T05:36:29.538Z,9.711690
2023-07-21T05:37:30.402Z,9.711986
2023-07-21T05:38:29.513Z,9.712013
2023-07-21T05:39:29.549Z,9.711957
2023-07-21T05:40:29.513Z,9.711887
2023-07-21T05:41:29.495Z,9.712227
2023-07-21T05:42:29.492Z,9.712353
2023-07-21T05:43:29.500Z,9.711983
2023-07-21T05:44:30.456Z,9.712492
2023-07-21T05:45:30.550Z,9.712446
2023-07-21T05:46:29.658Z,9.711574
2023-07-21T05:47:29.517Z,9.711480
2023-07-21T05:48:29.450Z,9.711658
2023-07-21T05:49:29.450Z,9.712810
2023-07-21T05:50:29.443Z,9.712823
2023-07-21T05:51:29.420Z,9.712488
2023-07-21T05:52:29.427Z,9.712532
2023-07-21T05:53:29.418Z,9.712415
2023-07-21T05:54:29.535Z,9.712914
2023-07-21T05:55:29.411Z,9.712979
2023-07-21T05:56:29.389Z,9.713043
2023-07-21T05:57:29.391Z,9.712483
2023-07-21T05:58:29.371Z,9.712729
2023-07-21T05:59:29.391Z,9.712596
2023-07-21T06:00:29.413Z,9.711987
2023-07-21T06:01:29.349Z,9.711255
2023-07-21T06:02:29.413Z,9.711191
2023-07-21T06:03:29.539Z,9.711831
2023-07-21T06:04:29.333Z,9.712590
2023-07-21T06:05:29.314Z,9.711907
2023-07-21T06:06:29.312Z,9.711727
2023-07-21T06:07:29.299Z,9.711843
2023-07-21T06:08:29.301Z,9.711883
2023-07-21T06:09:29.298Z,9.711883
2023-07-21T06:10:29.329Z,9.711883
2023-07-21T06:11:29.260Z,9.711883
2023-07-21T06:12:29.290Z,9.711883
2023-07-21T06:13:29.252Z,9.711663
2023-07-21T06:14:29.270Z,9.711807
2023-07-21T06:15:29.238Z,9.712027
2023-07-21T06:16:29.488Z,9.711732
2023-07-21T06:17:29.309Z,9.711268
2023-07-21T06:18:29.261Z,9.711778
2023-07-21T06:19:29.285Z,9.711427
2023-07-21T06:20:29.279Z,9.711548
2023-07-21T06:21:29.617Z,9.711712
2023-07-21T06:22:29.194Z,9.711648
2023-07-21T06:23:29.188Z,9.711316
2023-07-21T06:24:29.258Z,9.711782
2023-07-21T06:25:29.158Z,9.711745
2023-07-21T06:26:29.366Z,9.711693
2023-07-21T06:27:29.143Z,9.711510
2023-07-21T06:28:29.123Z,9.711320
2023-07-21T06:29:29.140Z,9.711370
2023-07-21T06:30:29.224Z,9.711297
2023-07-21T06:31:29.390Z,9.711452
2023-07-21T06:32:30.844Z,9.711496
2023-07-21T06:33:30.095Z,9.711474
2023-07-21T06:34:29.100Z,9.711658
2023-07-21T06:35:29.106Z,9.711251
2023-07-21T06:36:29.092Z,9.711669
2023-07-21T06:37:29.075Z,9.711676
2023-07-21T06:38:29.070Z,9.711545
2023-07-21T06:39:29.040Z,9.711434
2023-07-21T06:40:29.030Z,9.711625
2023-07-21T06:41:29.206Z,9.711676
2023-07-21T06:42:29.030Z,9.711569
2023-07-21T06:43:29.027Z,9.711610
2023-07-21T06:44:29.035Z,9.711679
2023-07-21T06:45:29.010Z,9.711588
2023-07-21T06:46:28.999Z,9.711637
2023-07-21T06:47:29.081Z,9.711853
2023-07-21T06:48:28.988Z,9.711606
2023-07-21T06:49:28.975Z,9.711683
2023-07-21T06:50:28.986Z,9.711667
2023-07-21T06:51:28.955Z,9.711619
2023-07-21T06:52:28.954Z,9.711584
2023-07-21T06:53:28.959Z,9.711545
2023-07-21T06:54:28.940Z,9.711452
2023-07-21T06:55:28.940Z,9.711436
2023-07-21T06:56:28.946Z,9.711535
2023-07-21T06:57:28.920Z,9.711579
2023-07-21T06:58:28.897Z,9.711581
2023-07-21T07:00:01.965Z,9.711602
2023-07-21T07:00:28.923Z,9.711538
2023-07-21T07:01:29.114Z,9.711587
2023-07-21T07:02:29.015Z,9.711533
2023-07-21T07:03:28.905Z,9.711624
2023-07-21T07:04:28.875Z,9.711703
2023-07-21T07:05:28.861Z,9.711569
2023-07-21T07:06:28.902Z,9.711708
2023-07-21T07:07:28.836Z,9.711699
2023-07-21T07:08:28.890Z,9.711496
2023-07-21T07:09:28.839Z,9.711568
2023-07-21T07:10:28.834Z,9.711555
2023-07-21T07:11:29.126Z,9.711588
2023-07-21T07:12:28.822Z,9.711620
2023-07-21T07:13:30.554Z,9.711591
2023-07-21T07:14:28.822Z,9.711639
2023-07-21T07:15:28.794Z,9.711693
2023-07-21T07:16:29.525Z,9.711740
2023-07-21T07:17:29.517Z,9.711714
2023-07-21T07:18:30.425Z,9.711665
2023-07-21T07:19:28.749Z,9.711623
2023-07-21T07:20:28.753Z,9.711630
2023-07-21T07:21:28.721Z,9.711640
2023-07-21T07:22:28.725Z,9.711660
2023-07-21T07:23:28.712Z,9.711640
2023-07-21T07:24:28.736Z,9.711661
2023-07-21T07:25:28.714Z,9.711633
2023-07-21T07:26:28.710Z,9.711637
2023-07-21T07:27:28.701Z,9.711651
2023-07-21T07:28:28.666Z,9.711625
2023-07-21T07:29:28.681Z,9.711592
2023-07-21T07:30:35.441Z,9.711582
2023-07-21T07:31:29.607Z,9.711654
2023-07-21T07:32:28.697Z,9.711656
2023-07-21T07:33:28.627Z,9.711625
2023-07-21T07:34:28.704Z,9.711609
2023-07-21T07:35:28.620Z,9.711619
2023-07-21T07:36:28.616Z,9.711623
2023-07-21T07:37:28.597Z,9.711584
2023-07-21T07:38:28.591Z,9.711617
2023-07-21T07:39:28.591Z,9.711600
2023-07-21T07:40:28.557Z,9.711584
2023-07-21T07:41:28.720Z,9.711616
2023-07-21T07:42:28.594Z,9.711577
2023-07-21T07:43:28.557Z,9.711598
2023-07-21T07:44:28.548Z,9.711646
2023-07-21T07:45:28.540Z,9.711594
2023-07-21T07:46:28.537Z,9.711599
2023-07-21T07:47:28.576Z,9.711586
2023-07-21T07:48:28.520Z,9.711553
2023-07-21T07:49:28.506Z,9.711593
2023-07-21T07:50:28.478Z,9.711687
2023-07-21T07:51:28.589Z,9.711707
2023-07-21T07:52:28.489Z,9.711667
2023-07-21T07:53:29.992Z,9.711488
2023-07-21T07:54:28.464Z,9.711536
2023-07-21T07:55:28.790Z,9.711530
2023-07-21T07:56:31.032Z,9.711765
2023-07-21T07:57:28.432Z,9.711774
2023-07-21T07:58:28.483Z,9.711866
2023-07-21T07:59:28.966Z,9.711861
2023-07-21T08:00:28.415Z,9.712014
2023-07-21T08:01:28.816Z,9.711848
2023-07-21T08:02:28.421Z,9.711424
2023-07-21T08:03:28.498Z,9.711281
2023-07-21T08:04:28.435Z,9.711698
2023-07-21T08:05:28.356Z,9.711578
2023-07-21T08:06:30.548Z,9.711422
2023-07-21T08:07:28.351Z,9.711564
2023-07-21T08:08:28.345Z,9.711583
2023-07-21T08:09:28.329Z,9.711617
2023-07-21T08:10:28.329Z,9.711408
2023-07-21T08:11:29.056Z,9.711352
2023-07-21T08:12:28.312Z,9.711515
2023-07-21T08:13:28.290Z,9.711554
2023-07-21T08:14:28.317Z,9.711796
2023-07-21T08:15:28.306Z,9.711777
2023-07-21T08:16:28.424Z,9.711394
2023-07-21T08:17:29.280Z,9.711458
2023-07-21T08:18:28.291Z,9.711396
2023-07-21T08:19:28.257Z,9.711539
2023-07-21T08:20:29.250Z,9.711586
2023-07-21T08:21:28.629Z,9.711557
2023-07-21T08:22:28.221Z,9.711363
2023-07-21T08:23:30.345Z,9.711514
2023-07-21T08:24:29.292Z,9.711576
2023-07-21T08:25:28.239Z,9.711686
2023-07-21T08:26:28.218Z,9.711755
2023-07-21T08:27:28.185Z,9.711864
2023-07-21T08:28:28.181Z,9.711994
2023-07-21T08:29:28.177Z,9.711783
2023-07-21T08:30:28.195Z,9.711784
2023-07-21T08:31:28.524Z,9.711740
2023-07-21T08:32:28.174Z,9.711768
2023-07-21T08:33:28.168Z,9.711746
2023-07-21T08:34:28.173Z,9.711776
2023-07-21T08:35:28.123Z,9.711820
2023-07-21T21:21:40.818Z,9.711757
2023-07-21T21:22:40.801Z,9.711859
2023-07-21T21:23:40.820Z,9.711810
2023-07-21T21:24:40.856Z,9.711912
2023-07-21T21:25:40.794Z,9.711797
2023-07-21T21:26:40.773Z,9.711751
2023-07-21T21:27:40.754Z,9.711788
2023-07-21T21:28:40.747Z,9.711838
2023-07-21T21:29:40.748Z,9.711720
2023-07-21T21:30:40.750Z,9.711878
2023-07-21T21:31:40.773Z,9.711887
2023-07-21T21:32:40.774Z,9.712028
2023-07-21T21:33:40.721Z,9.712079
2023-07-21T21:34:40.717Z,9.712077
2023-07-21T21:35:40.691Z,9.712102
2023-07-21T21:36:40.719Z,9.711958
2023-07-21T21:37:40.688Z,9.711890
2023-07-21T21:38:40.697Z,9.711926
2023-07-21T21:39:40.652Z,9.711774
2023-07-21T21:40:40.657Z,9.711833
2023-07-21T21:41:40.651Z,9.711769
2023-07-21T21:42:40.639Z,9.711858
2023-07-21T21:43:40.635Z,9.711748
2023-07-21T21:44:40.649Z,9.711767
2023-07-21T21:45:40.694Z,9.711927
2023-07-21T21:46:42.167Z,9.711920
2023-07-21T21:47:40.637Z,9.711897
2023-07-21T21:48:40.600Z,9.711853
2023-07-21T21:49:40.582Z,9.711821
2023-07-21T21:50:40.599Z,9.711809
2023-07-21T21:51:41.171Z,9.711922
2023-07-21T21:52:40.593Z,9.711719
2023-07-21T21:53:40.548Z,9.711845
2023-07-21T21:54:40.562Z,9.711920
2023-07-21T21:55:40.561Z,9.711877
2023-07-21T21:56:40.547Z,9.711946
2023-07-21T21:57:41.957Z,9.711867
2023-07-21T21:58:40.527Z,9.711793
2023-07-21T21:59:40.519Z,9.711777
2023-07-21T22:00:40.499Z,9.711730
2023-07-21T22:01:40.529Z,9.711740
2023-07-21T22:02:40.544Z,9.711760
2023-07-21T22:03:40.590Z,9.711703
2023-07-21T22:04:40.461Z,9.711704
2023-07-21T22:05:40.462Z,9.711721
2023-07-21T22:06:40.444Z,9.711715
2023-07-21T22:07:40.427Z,9.711723
2023-07-21T22:08:40.464Z,9.711690
2023-07-21T22:09:40.425Z,9.711673
2023-07-21T22:10:40.421Z,9.711718
2023-07-21T22:11:43.045Z,9.711751
2023-07-21T22:12:43.188Z,9.711766
2023-07-21T22:13:40.989Z,9.711741
2023-07-21T22:14:50.759Z,9.711702
2023-07-21T22:15:42.450Z,9.711721
2023-07-21T22:16:41.232Z,9.711741
2023-07-21T22:17:40.378Z,9.711752
2023-07-21T22:18:40.344Z,9.711744
2023-07-21T22:19:40.366Z,9.711743
2023-07-21T22:20:40.401Z,9.711746
2023-07-21T22:21:41.287Z,9.711703
2023-07-21T22:22:40.431Z,9.711715
2023-07-21T22:23:40.395Z,9.711715
2023-07-21T22:24:40.317Z,9.711733
2023-07-21T22:25:40.297Z,9.711749
2023-07-21T22:26:40.359Z,9.711731
2023-07-21T22:27:41.301Z,9.711695
2023-07-21T22:28:41.281Z,9.711678
2023-07-21T22:29:41.136Z,9.711696
2023-07-21T22:30:40.321Z,9.711706
2023-07-21T22:31:40.274Z,9.711735
2023-07-21T22:32:40.378Z,9.711706
2023-07-21T22:33:40.284Z,9.711679
2023-07-21T22:34:40.215Z,9.711703
2023-07-21T22:35:40.229Z,9.711709
2023-07-21T22:36:40.228Z,9.711662
2023-07-21T22:37:40.219Z,9.711688
2023-07-21T22:38:40.261Z,9.711636
2023-07-21T22:39:40.184Z,9.711708
2023-07-21T22:40:40.186Z,9.711766
2023-07-21T22:41:41.177Z,9.711686
2023-07-21T22:42:40.168Z,9.711641
2023-07-21T22:43:40.195Z,9.711738
2023-07-21T22:44:42.125Z,9.712066
2023-07-21T22:45:40.190Z,9.711872
2023-07-21T22:46:40.140Z,9.711854
2023-07-21T22:47:40.143Z,9.711858
2023-07-21T22:48:40.142Z,9.711744
2023-07-21T22:49:40.108Z,9.711739
2023-07-21T22:50:40.122Z,9.711877
2023-07-21T22:51:40.170Z,9.711919
2023-07-21T22:52:41.645Z,9.711739
2023-07-21T22:53:40.081Z,9.711864
2023-07-21T22:54:40.714Z,9.711753
2023-07-21T22:55:40.046Z,9.712037
2023-07-21T22:56:40.042Z,9.711994
2023-07-21T22:57:40.048Z,9.711995
2023-07-21T22:58:40.029Z,9.711987
2023-07-21T22:59:40.029Z,9.711761
2023-07-21T23:00:40.113Z,9.711793
2023-07-21T23:01:40.155Z,9.711754
2023-07-21T23:02:40.084Z,9.711740
2023-07-21T23:03:40.108Z,9.711717
2023-07-21T23:04:40.001Z,9.711753
2023-07-21T23:05:40.040Z,9.711679
2023-07-21T23:06:40.900Z,9.711730
2023-07-21T23:07:41.235Z,9.711856
2023-07-21T23:08:39.982Z,9.711830
2023-07-21T23:09:40.793Z,9.711792
2023-07-21T23:10:39.975Z,9.711658
2023-07-21T23:11:40.045Z,9.711629
2023-07-21T23:12:40.005Z,9.711653
2023-07-21T23:13:39.951Z,9.711796
2023-07-21T23:14:41.648Z,9.712351
2023-07-21T23:15:40.696Z,9.712202
2023-07-21T23:16:39.958Z,9.712000
2023-07-21T23:17:41.718Z,9.711967
2023-07-21T23:18:39.908Z,9.711909
2023-07-21T23:19:39.872Z,9.711896
2023-07-21T23:20:39.851Z,9.711819
2023-07-21T23:21:39.914Z,9.711781
2023-07-21T23:22:39.862Z,9.711649
2023-07-21T23:23:39.836Z,9.711652
2023-07-21T23:24:41.710Z,9.711664
2023-07-21T23:25:41.730Z,9.711610
2023-07-21T23:26:40.712Z,9.711607
2023-07-21T23:27:39.863Z,9.711688
2023-07-21T23:28:39.920Z,9.711609
2023-07-21T23:29:39.788Z,9.711607
2023-07-21T23:30:39.784Z,9.711667
2023-07-21T23:31:39.803Z,9.711652
2023-07-21T23:32:39.795Z,9.711616
2023-07-21T23:33:39.754Z,9.711673
2023-07-21T23:34:39.742Z,9.711661
2023-07-21T23:35:39.745Z,9.711589
2023-07-21T23:36:39.718Z,9.711623
2023-07-21T23:37:39.734Z,9.711672
2023-07-21T23:38:39.721Z,9.711654
2023-07-21T23:39:40.645Z,9.711614
2023-07-21T23:40:39.694Z,9.711598
2023-07-21T23:41:39.691Z,9.711667
2023-07-21T23:42:39.681Z,9.711753
2023-07-21T23:43:39.669Z,9.711744
2023-07-21T23:44:39.664Z,9.711688
2023-07-21T23:45:39.660Z,9.711714
2023-07-21T23:46:39.685Z,9.711793
2023-07-21T23:47:39.657Z,9.711743
2023-07-21T23:48:41.130Z,9.711712
2023-07-21T23:56:48.515Z,9.712152
2023-07-21T23:57:48.502Z,9.711744
2023-07-21T23:58:48.493Z,9.711719
2023-07-21T23:59:48.493Z,9.711624
